sensor_id;sensor_type;location;lat;lon;timestamp;P1;durP1;ratioP1;P2;durP2;ratioP2
34471;SDS011;20710;49.976;19.836;2022-07-22T00:01:03;6.62;;;3.75;;
34471;SDS011;20710;49.976;19.836;2022-07-22T00:07:09;7.37;;;4.47;;
34471;SDS011;20710;49.976;19.836;2022-07-22T00:13:11;12.13;;;6.00;;
34471;SDS011;20710;49.976;19.836;2022-07-22T00:19:18;10.03;;;5.90;;
34471;SDS011;20710;49.976;19.836;2022-07-22T00:25:24;12.13;;;5.67;;
34471;SDS011;20710;49.976;19.836;2022-07-22T00:31:26;13.65;;;6.45;;
34471;SDS011;20710;49.976;19.836;2022-07-22T00:37:35;8.95;;;5.60;;
34471;SDS011;20710;49.976;19.836;2022-07-22T00:43:48;8.73;;;5.17;;
34471;SDS011;20710;49.976;19.836;2022-07-22T00:49:59;10.08;;;5.12;;
34471;SDS011;20710;49.976;19.836;2022-07-22T00:56:02;12.50;;;5.50;;
34471;SDS011;20710;49.976;19.836;2022-07-22T01:02:05;8.03;;;5.10;;
34471;SDS011;20710;49.976;19.836;2022-07-22T01:08:09;8.68;;;6.00;;
34471;SDS011;20710;49.976;19.836;2022-07-22T01:14:20;7.83;;;5.30;;
34471;SDS011;20710;49.976;19.836;2022-07-22T01:20:21;13.28;;;5.97;;
34471;SDS011;20710;49.976;19.836;2022-07-22T01:26:26;10.68;;;5.58;;
34471;SDS011;20710;49.976;19.836;2022-07-22T01:32:39;8.90;;;5.05;;
34471;SDS011;20710;49.976;19.836;2022-07-22T01:38:43;8.78;;;4.85;;
34471;SDS011;20710;49.976;19.836;2022-07-22T01:44:48;10.75;;;5.35;;
34471;SDS011;20710;49.976;19.836;2022-07-22T01:50:51;13.50;;;5.47;;
34471;SDS011;20710;49.976;19.836;2022-07-22T01:56:52;12.45;;;7.53;;
34471;SDS011;20710;49.976;19.836;2022-07-22T02:02:55;11.05;;;7.33;;
34471;SDS011;20710;49.976;19.836;2022-07-22T02:08:56;12.25;;;6.85;;
34471;SDS011;20710;49.976;19.836;2022-07-22T02:15:07;9.53;;;6.47;;
34471;SDS011;20710;49.976;19.836;2022-07-22T02:21:15;11.35;;;6.37;;
34471;SDS011;20710;49.976;19.836;2022-07-22T02:27:27;12.45;;;6.15;;
34471;SDS011;20710;49.976;19.836;2022-07-22T02:33:34;13.13;;;6.60;;
34471;SDS011;20710;49.976;19.836;2022-07-22T02:39:44;11.90;;;6.95;;
34471;SDS011;20710;49.976;19.836;2022-07-22T02:45:53;14.40;;;6.62;;
34471;SDS011;20710;49.976;19.836;2022-07-22T02:52:05;9.40;;;6.08;;
34471;SDS011;20710;49.976;19.836;2022-07-22T02:58:11;9.45;;;6.55;;
34471;SDS011;20710;49.976;19.836;2022-07-22T03:04:17;13.10;;;6.80;;
34471;SDS011;20710;49.976;19.836;2022-07-22T03:10:32;9.78;;;6.80;;
34471;SDS011;20710;49.976;19.836;2022-07-22T03:16:39;10.10;;;6.37;;
34471;SDS011;20710;49.976;19.836;2022-07-22T03:22:49;10.78;;;5.95;;
34471;SDS011;20710;49.976;19.836;2022-07-22T03:28:57;11.22;;;6.87;;
34471;SDS011;20710;49.976;19.836;2022-07-22T03:35:04;16.32;;;5.97;;
34471;SDS011;20710;49.976;19.836;2022-07-22T03:41:09;10.70;;;6.20;;
34471;SDS011;20710;49.976;19.836;2022-07-22T03:47:18;13.50;;;6.37;;
34471;SDS011;20710;49.976;19.836;2022-07-22T03:53:29;13.55;;;7.20;;
34471;SDS011;20710;49.976;19.836;2022-07-22T03:59:43;12.30;;;6.90;;
34471;SDS011;20710;49.976;19.836;2022-07-22T04:05:47;12.10;;;6.95;;
34471;SDS011;20710;49.976;19.836;2022-07-22T04:11:50;11.57;;;7.33;;
34471;SDS011;20710;49.976;19.836;2022-07-22T04:17:54;15.23;;;8.03;;
34471;SDS011;20710;49.976;19.836;2022-07-22T04:24:05;14.98;;;9.38;;
34471;SDS011;20710;49.976;19.836;2022-07-22T04:30:35;11.25;;;7.65;;
34471;SDS011;20710;49.976;19.836;2022-07-22T04:36:50;9.70;;;7.67;;
34471;SDS011;20710;49.976;19.836;2022-07-22T04:42:59;12.50;;;8.20;;
34471;SDS011;20710;49.976;19.836;2022-07-22T04:49:08;13.50;;;8.28;;
34471;SDS011;20710;49.976;19.836;2022-07-22T04:55:17;13.13;;;7.97;;
34471;SDS011;20710;49.976;19.836;2022-07-22T05:01:25;11.43;;;7.45;;
34471;SDS011;20710;49.976;19.836;2022-07-22T05:07:33;12.30;;;7.53;;
34471;SDS011;20710;49.976;19.836;2022-07-22T05:13:41;15.65;;;8.35;;
34471;SDS011;20710;49.976;19.836;2022-07-22T05:26:10;9.15;;;7.03;;
34471;SDS011;20710;49.976;19.836;2022-07-22T05:32:13;10.72;;;6.65;;
34471;SDS011;20710;49.976;19.836;2022-07-22T05:38:37;16.75;;;8.15;;
34471;SDS011;20710;49.976;19.836;2022-07-22T05:44:45;12.13;;;7.28;;
34471;SDS011;20710;49.976;19.836;2022-07-22T05:50:50;13.72;;;7.40;;
34471;SDS011;20710;49.976;19.836;2022-07-22T05:56:52;12.28;;;7.80;;
34471;SDS011;20710;49.976;19.836;2022-07-22T06:03:10;16.67;;;7.47;;
34471;SDS011;20710;49.976;19.836;2022-07-22T06:09:11;11.33;;;7.65;;
34471;SDS011;20710;49.976;19.836;2022-07-22T06:21:36;9.80;;;7.65;;
34471;SDS011;20710;49.976;19.836;2022-07-22T06:27:50;8.48;;;7.25;;
34471;SDS011;20710;49.976;19.836;2022-07-22T06:34:13;12.68;;;7.58;;
34471;SDS011;20710;49.976;19.836;2022-07-22T06:40:27;12.25;;;7.90;;
34471;SDS011;20710;49.976;19.836;2022-07-22T06:46:45;12.35;;;8.15;;
34471;SDS011;20710;49.976;19.836;2022-07-22T06:52:54;11.90;;;7.90;;
34471;SDS011;20710;49.976;19.836;2022-07-22T07:05:28;13.20;;;8.78;;
34471;SDS011;20710;49.976;19.836;2022-07-22T07:11:38;12.07;;;8.35;;
34471;SDS011;20710;49.976;19.836;2022-07-22T07:17:50;14.30;;;8.23;;
34471;SDS011;20710;49.976;19.836;2022-07-22T07:23:53;10.88;;;8.60;;
34471;SDS011;20710;49.976;19.836;2022-07-22T07:36:31;12.33;;;7.83;;
34471;SDS011;20710;49.976;19.836;2022-07-22T07:42:33;11.78;;;7.87;;
34471;SDS011;20710;49.976;19.836;2022-07-22T07:48:51;9.48;;;7.95;;
34471;SDS011;20710;49.976;19.836;2022-07-22T07:54:57;10.48;;;7.58;;
34471;SDS011;20710;49.976;19.836;2022-07-22T08:01:00;11.43;;;8.05;;
34471;SDS011;20710;49.976;19.836;2022-07-22T08:07:11;13.40;;;8.45;;
34471;SDS011;20710;49.976;19.836;2022-07-22T08:13:22;11.08;;;8.10;;
34471;SDS011;20710;49.976;19.836;2022-07-22T08:20:05;11.78;;;7.30;;
34471;SDS011;20710;49.976;19.836;2022-07-22T08:26:14;10.30;;;7.60;;
34471;SDS011;20710;49.976;19.836;2022-07-22T08:32:18;9.43;;;7.30;;
34471;SDS011;20710;49.976;19.836;2022-07-22T08:38:26;15.88;;;7.58;;
34471;SDS011;20710;49.976;19.836;2022-07-22T08:44:32;12.00;;;7.62;;
34471;SDS011;20710;49.976;19.836;2022-07-22T08:50:36;9.45;;;7.92;;
34471;SDS011;20710;49.976;19.836;2022-07-22T08:56:40;8.48;;;6.90;;
34471;SDS011;20710;49.976;19.836;2022-07-22T09:03:02;14.45;;;9.50;;
34471;SDS011;20710;49.976;19.836;2022-07-22T09:16:03;10.25;;;8.85;;
34471;SDS011;20710;49.976;19.836;2022-07-22T09:22:29;10.35;;;8.98;;
34471;SDS011;20710;49.976;19.836;2022-07-22T09:28:55;11.35;;;8.55;;
34471;SDS011;20710;49.976;19.836;2022-07-22T09:35:08;12.10;;;8.13;;
34471;SDS011;20710;49.976;19.836;2022-07-22T09:41:25;12.15;;;8.63;;
34471;SDS011;20710;49.976;19.836;2022-07-22T09:47:32;17.35;;;8.65;;
34471;SDS011;20710;49.976;19.836;2022-07-22T09:53:51;11.10;;;8.80;;
34471;SDS011;20710;49.976;19.836;2022-07-22T10:00:06;18.52;;;9.55;;
34471;SDS011;20710;49.976;19.836;2022-07-22T10:06:20;13.45;;;9.75;;
34471;SDS011;20710;49.976;19.836;2022-07-22T10:12:30;15.68;;;9.80;;
34471;SDS011;20710;49.976;19.836;2022-07-22T10:18:34;14.53;;;9.60;;
34471;SDS011;20710;49.976;19.836;2022-07-22T10:25:02;14.15;;;10.43;;
34471;SDS011;20710;49.976;19.836;2022-07-22T10:31:23;16.62;;;9.88;;
34471;SDS011;20710;49.976;19.836;2022-07-22T10:43:56;14.25;;;9.88;;
34471;SDS011;20710;49.976;19.836;2022-07-22T10:56:49;11.38;;;9.73;;
34471;SDS011;20710;49.976;19.836;2022-07-22T11:03:07;12.80;;;9.13;;
34471;SDS011;20710;49.976;19.836;2022-07-22T11:09:11;14.75;;;9.70;;
34471;SDS011;20710;49.976;19.836;2022-07-22T11:15:17;13.80;;;9.08;;
34471;SDS011;20710;49.976;19.836;2022-07-22T11:21:24;11.08;;;9.40;;
34471;SDS011;20710;49.976;19.836;2022-07-22T11:27:32;9.48;;;8.48;;
34471;SDS011;20710;49.976;19.836;2022-07-22T11:33:38;17.10;;;9.33;;
34471;SDS011;20710;49.976;19.836;2022-07-22T11:39:42;13.93;;;8.70;;
34471;SDS011;20710;49.976;19.836;2022-07-22T11:45:57;12.10;;;8.95;;
34471;SDS011;20710;49.976;19.836;2022-07-22T11:52:10;13.60;;;9.45;;
34471;SDS011;20710;49.976;19.836;2022-07-22T12:04:53;11.55;;;9.70;;
34471;SDS011;20710;49.976;19.836;2022-07-22T12:11:09;11.55;;;8.88;;
34471;SDS011;20710;49.976;19.836;2022-07-22T12:17:20;11.28;;;9.00;;
34471;SDS011;20710;49.976;19.836;2022-07-22T12:23:31;10.95;;;9.20;;
34471;SDS011;20710;49.976;19.836;2022-07-22T12:29:42;10.72;;;9.23;;
34471;SDS011;20710;49.976;19.836;2022-07-22T12:42:15;13.18;;;9.43;;
34471;SDS011;20710;49.976;19.836;2022-07-22T12:48:28;10.48;;;8.93;;
34471;SDS011;20710;49.976;19.836;2022-07-22T12:54:36;10.53;;;7.90;;
34471;SDS011;20710;49.976;19.836;2022-07-22T13:00:50;9.68;;;7.58;;
34471;SDS011;20710;49.976;19.836;2022-07-22T13:06:59;11.83;;;8.03;;
34471;SDS011;20710;49.976;19.836;2022-07-22T13:13:02;11.97;;;8.85;;
34471;SDS011;20710;49.976;19.836;2022-07-22T13:19:13;13.18;;;9.05;;
34471;SDS011;20710;49.976;19.836;2022-07-22T13:25:25;11.87;;;8.40;;
34471;SDS011;20710;49.976;19.836;2022-07-22T13:31:27;9.20;;;8.13;;
34471;SDS011;20710;49.976;19.836;2022-07-22T13:37:35;10.40;;;8.13;;
34471;SDS011;20710;49.976;19.836;2022-07-22T13:43:44;9.68;;;7.92;;
34471;SDS011;20710;49.976;19.836;2022-07-22T13:49:53;8.95;;;7.75;;
34471;SDS011;20710;49.976;19.836;2022-07-22T13:56:04;14.03;;;7.28;;
34471;SDS011;20710;49.976;19.836;2022-07-22T14:02:27;9.70;;;8.13;;
34471;SDS011;20710;49.976;19.836;2022-07-22T14:08:31;10.48;;;8.38;;
34471;SDS011;20710;49.976;19.836;2022-07-22T14:14:39;11.95;;;8.00;;
34471;SDS011;20710;49.976;19.836;2022-07-22T14:20:46;11.80;;;7.97;;
34471;SDS011;20710;49.976;19.836;2022-07-22T14:26:50;10.40;;;8.23;;
34471;SDS011;20710;49.976;19.836;2022-07-22T14:33:07;13.00;;;7.67;;
34471;SDS011;20710;49.976;19.836;2022-07-22T14:39:09;9.60;;;7.83;;
34471;SDS011;20710;49.976;19.836;2022-07-22T14:45:13;9.18;;;6.83;;
34471;SDS011;20710;49.976;19.836;2022-07-22T14:51:21;9.18;;;7.28;;
34471;SDS011;20710;49.976;19.836;2022-07-22T14:57:23;9.10;;;6.78;;
34471;SDS011;20710;49.976;19.836;2022-07-22T15:03:27;10.35;;;6.87;;
34471;SDS011;20710;49.976;19.836;2022-07-22T15:09:30;9.20;;;7.05;;
34471;SDS011;20710;49.976;19.836;2022-07-22T15:15:37;9.58;;;7.20;;
34471;SDS011;20710;49.976;19.836;2022-07-22T15:21:43;10.15;;;7.12;;
34471;SDS011;20710;49.976;19.836;2022-07-22T15:27:57;6.85;;;6.17;;
34471;SDS011;20710;49.976;19.836;2022-07-22T15:34:15;7.58;;;6.72;;
34471;SDS011;20710;49.976;19.836;2022-07-22T15:40:18;7.67;;;6.58;;
34471;SDS011;20710;49.976;19.836;2022-07-22T15:46:24;7.05;;;6.42;;
34471;SDS011;20710;49.976;19.836;2022-07-22T15:52:28;11.48;;;7.12;;
34471;SDS011;20710;49.976;19.836;2022-07-22T15:58:31;13.10;;;7.00;;
34471;SDS011;20710;49.976;19.836;2022-07-22T16:04:54;8.13;;;7.22;;
34471;SDS011;20710;49.976;19.836;2022-07-22T16:11:04;8.65;;;7.08;;
34471;SDS011;20710;49.976;19.836;2022-07-22T16:17:06;12.75;;;7.22;;
34471;SDS011;20710;49.976;19.836;2022-07-22T16:29:21;7.12;;;6.42;;
34471;SDS011;20710;49.976;19.836;2022-07-22T16:35:26;7.42;;;6.72;;
34471;SDS011;20710;49.976;19.836;2022-07-22T16:41:31;9.20;;;6.97;;
34471;SDS011;20710;49.976;19.836;2022-07-22T16:47:45;10.55;;;6.67;;
34471;SDS011;20710;49.976;19.836;2022-07-22T16:53:50;11.12;;;6.53;;
34471;SDS011;20710;49.976;19.836;2022-07-22T17:00:07;8.35;;;6.55;;
34471;SDS011;20710;49.976;19.836;2022-07-22T17:06:19;8.77;;;6.60;;
34471;SDS011;20710;49.976;19.836;2022-07-22T17:12:24;7.50;;;6.42;;
34471;SDS011;20710;49.976;19.836;2022-07-22T17:18:28;13.48;;;6.62;;
34471;SDS011;20710;49.976;19.836;2022-07-22T17:24:35;8.73;;;7.00;;
34471;SDS011;20710;49.976;19.836;2022-07-22T17:30:38;7.33;;;6.25;;
34471;SDS011;20710;49.976;19.836;2022-07-22T17:36:44;11.22;;;7.45;;
34471;SDS011;20710;49.976;19.836;2022-07-22T17:42:49;12.80;;;7.17;;
34471;SDS011;20710;49.976;19.836;2022-07-22T17:48:53;11.65;;;7.45;;
34471;SDS011;20710;49.976;19.836;2022-07-22T17:55:04;12.40;;;9.13;;
34471;SDS011;20710;49.976;19.836;2022-07-22T18:07:14;15.23;;;9.10;;
34471;SDS011;20710;49.976;19.836;2022-07-22T18:13:16;12.13;;;9.78;;
34471;SDS011;20710;49.976;19.836;2022-07-22T18:19:21;13.22;;;8.98;;
34471;SDS011;20710;49.976;19.836;2022-07-22T18:25:29;13.15;;;9.90;;
34471;SDS011;20710;49.976;19.836;2022-07-22T18:31:39;14.30;;;8.53;;
34471;SDS011;20710;49.976;19.836;2022-07-22T18:37:43;15.35;;;11.00;;
34471;SDS011;20710;49.976;19.836;2022-07-22T18:43:47;13.13;;;9.90;;
34471;SDS011;20710;49.976;19.836;2022-07-22T18:49:49;9.25;;;7.75;;
34471;SDS011;20710;49.976;19.836;2022-07-22T18:55:50;16.70;;;12.03;;
34471;SDS011;20710;49.976;19.836;2022-07-22T19:01:51;13.40;;;8.83;;
34471;SDS011;20710;49.976;19.836;2022-07-22T19:07:54;11.08;;;7.75;;
34471;SDS011;20710;49.976;19.836;2022-07-22T19:14:02;9.15;;;7.08;;
34471;SDS011;20710;49.976;19.836;2022-07-22T19:20:09;12.88;;;7.20;;
34471;SDS011;20710;49.976;19.836;2022-07-22T19:26:12;13.08;;;7.60;;
34471;SDS011;20710;49.976;19.836;2022-07-22T19:32:19;10.88;;;7.25;;
34471;SDS011;20710;49.976;19.836;2022-07-22T19:38:23;13.88;;;7.55;;
34471;SDS011;20710;49.976;19.836;2022-07-22T19:44:26;10.85;;;7.50;;
34471;SDS011;20710;49.976;19.836;2022-07-22T19:50:35;14.63;;;8.75;;
34471;SDS011;20710;49.976;19.836;2022-07-22T19:56:40;13.15;;;11.12;;
34471;SDS011;20710;49.976;19.836;2022-07-22T20:02:43;13.72;;;9.28;;
34471;SDS011;20710;49.976;19.836;2022-07-22T20:08:46;15.10;;;9.60;;
34471;SDS011;20710;49.976;19.836;2022-07-22T20:14:49;16.73;;;9.20;;
34471;SDS011;20710;49.976;19.836;2022-07-22T20:20:58;18.07;;;10.35;;
34471;SDS011;20710;49.976;19.836;2022-07-22T20:27:04;14.63;;;8.80;;
34471;SDS011;20710;49.976;19.836;2022-07-22T20:33:13;16.73;;;10.65;;
34471;SDS011;20710;49.976;19.836;2022-07-22T20:39:18;19.73;;;11.00;;
34471;SDS011;20710;49.976;19.836;2022-07-22T20:45:23;18.90;;;9.75;;
34471;SDS011;20710;49.976;19.836;2022-07-22T20:51:30;16.17;;;9.47;;
34471;SDS011;20710;49.976;19.836;2022-07-22T20:57:32;12.25;;;10.03;;
34471;SDS011;20710;49.976;19.836;2022-07-22T21:03:38;15.08;;;8.83;;
34471;SDS011;20710;49.976;19.836;2022-07-22T21:09:44;16.87;;;8.80;;
34471;SDS011;20710;49.976;19.836;2022-07-22T21:15:49;10.87;;;7.40;;
34471;SDS011;20710;49.976;19.836;2022-07-22T21:21:52;10.40;;;7.78;;
34471;SDS011;20710;49.976;19.836;2022-07-22T21:27:58;13.20;;;8.40;;
34471;SDS011;20710;49.976;19.836;2022-07-22T21:34:03;12.40;;;9.08;;
34471;SDS011;20710;49.976;19.836;2022-07-22T21:40:08;11.22;;;8.50;;
34471;SDS011;20710;49.976;19.836;2022-07-22T21:46:13;9.75;;;8.10;;
34471;SDS011;20710;49.976;19.836;2022-07-22T21:52:15;12.33;;;8.95;;
34471;SDS011;20710;49.976;19.836;2022-07-22T21:58:16;11.55;;;9.25;;
34471;SDS011;20710;49.976;19.836;2022-07-22T22:04:24;14.50;;;9.90;;
34471;SDS011;20710;49.976;19.836;2022-07-22T22:10:26;13.95;;;9.00;;
34471;SDS011;20710;49.976;19.836;2022-07-22T22:16:28;14.78;;;9.80;;
34471;SDS011;20710;49.976;19.836;2022-07-22T22:22:34;14.90;;;10.03;;
34471;SDS011;20710;49.976;19.836;2022-07-22T22:28:36;11.03;;;9.18;;
34471;SDS011;20710;49.976;19.836;2022-07-22T22:34:39;11.68;;;8.95;;
34471;SDS011;20710;49.976;19.836;2022-07-22T22:40:41;13.55;;;8.05;;
34471;SDS011;20710;49.976;19.836;2022-07-22T22:46:45;13.68;;;9.30;;
34471;SDS011;20710;49.976;19.836;2022-07-22T22:52:49;14.70;;;9.83;;
34471;SDS011;20710;49.976;19.836;2022-07-22T22:58:53;15.85;;;10.90;;
34471;SDS011;20710;49.976;19.836;2022-07-22T23:04:55;14.68;;;9.85;;
34471;SDS011;20710;49.976;19.836;2022-07-22T23:10:59;14.85;;;10.60;;
34471;SDS011;20710;49.976;19.836;2022-07-22T23:17:00;15.18;;;10.75;;
34471;SDS011;20710;49.976;19.836;2022-07-22T23:23:05;16.48;;;10.50;;
34471;SDS011;20710;49.976;19.836;2022-07-22T23:29:07;12.05;;;9.95;;
34471;SDS011;20710;49.976;19.836;2022-07-22T23:35:10;14.68;;;9.50;;
34471;SDS011;20710;49.976;19.836;2022-07-22T23:41:16;13.60;;;10.10;;
34471;SDS011;20710;49.976;19.836;2022-07-22T23:47:18;12.78;;;8.65;;
34471;SDS011;20710;49.976;19.836;2022-07-22T23:53:19;12.70;;;9.70;;
34471;SDS011;20710;49.976;19.836;2022-07-22T23:59:21;15.88;;;10.18;;
